MSC Maureen — HPMP — position and weather

sailwx.info

Track history (hours):
 
Tides and Currents Weather Stations Pressure Air Temp Water Temp Dewpoint Dewpoint Depression Visibility Wind Speed Wind Dir Waves Ship Positions

MSC Maureen

Last reported at 2018-Feb-19 16:43 UTC. Time now 2018-Feb-20 13:40 UTC.
Position N 09°35' W 079°48'.

Length 301 m; draft 11.6 m.

Type: Ship. MMSI: 355216000.

Date/timePositionNaut miles runAvg speedWind from/ knotsBaromVisibWave heightAir tempDewpointWater temp
2018-Feb-19 16:43N 09°35' W 079°48'419.3
2018-Feb-19 16:30N 09°32' W 079°50'816.9
2018-Feb-19 16:00N 09°25' W 079°55'4 8.3
2018-Feb-19 15:30N 09°21' W 079°55'1 0.4
2018-Feb-19 13:54N 09°21' W 079°54'0 0.3
2018-Feb-19 13:30N 09°21' W 079°54'0 0.2
2018-Feb-19 13:00N 09°21' W 079°54'0 0.0
2018-Feb-19 12:30N 09°21' W 079°54'0 0.2
2018-Feb-19 12:00N 09°21' W 079°54'0 0.0
2018-Feb-19 11:29N 09°21' W 079°54'0 0.2
2018-Feb-19 10:59N 09°21' W 079°54'0 0.0
2018-Feb-19 10:29N 09°21' W 079°54'0 0.0
2018-Feb-19 09:59N 09°21' W 079°54'0 0.0
2018-Feb-19 09:28N 09°21' W 079°54'0 0.0
2018-Feb-19 08:58N 09°21' W 079°54'0 0.0
2018-Feb-19 08:25N 09°21' W 079°54'0 0.0
2018-Feb-19 07:58N 09°21' W 079°54'0 0.0
2018-Feb-19 07:28N 09°21' W 079°54'0 0.0
2018-Feb-19 07:00N 09°21' W 079°54'0 0.0
2018-Feb-19 06:30N 09°21' W 079°54'0 0.2
2018-Feb-19 05:57N 09°21' W 079°54'0 0.2
2018-Feb-19 05:30N 09°21' W 079°54'0 0.0
2018-Feb-19 05:00N 09°21' W 079°54'0 0.0
2018-Feb-19 04:29N 09°21' W 079°54'0 0.0
2018-Feb-19 03:59N 09°21' W 079°54'0 0.0
2018-Feb-19 03:29N 09°21' W 079°54'0 0.2
2018-Feb-19 02:59N 09°21' W 079°54'0 0.2
2018-Feb-19 02:28N 09°21' W 079°54'0 0.0
2018-Feb-19 01:58N 09°21' W 079°54'0 0.0
2018-Feb-19 01:28N 09°21' W 079°54'0 0.0
2018-Feb-19 00:58N 09°21' W 079°54'0 0.0
2018-Feb-19 00:28N 09°21' W 079°54'0 0.0
2018-Feb-19 00:00N 09°21' W 079°54'0 0.0
2018-Feb-18 23:30N 09°21' W 079°54'0 0.0
2018-Feb-18 23:00N 09°21' W 079°54'0 0.0
2018-Feb-18 22:30N 09°21' W 079°54'0 0.0
2018-Feb-18 22:00N 09°21' W 079°54'0 0.0
2018-Feb-18 21:29N 09°21' W 079°54'0 0.0
2018-Feb-18 20:56N 09°21' W 079°54'0 0.2
2018-Feb-18 20:29N 09°21' W 079°54'0 0.2
2018-Feb-18 19:59N 09°21' W 079°54'0 0.0
2018-Feb-18 19:28N 09°21' W 079°54'0 0.0
2018-Feb-18 18:58N 09°21' W 079°54'0 0.0
2018-Feb-18 18:28N 09°21' W 079°54'0 0.2
2018-Feb-18 17:58N 09°21' W 079°54'0 0.2
2018-Feb-18 17:28N 09°21' W 079°54'0 0.3
2018-Feb-18 17:00N 09°21' W 079°54'1 1.3
2018-Feb-18 16:30N 09°21' W 079°55'1 2.9
2018-Feb-18 16:00N 09°23' W 079°55'4 7.2
2018-Feb-18 15:30N 09°26' W 079°55'2 5.0
2018-Feb-18 15:00N 09°29' W 079°55'510.7
2018-Feb-18 14:30N 09°30' W 080°00'1 1.5
2018-Feb-18 14:00N 09°30' W 080°01'1 1.5
2018-Feb-18 13:30N 09°30' W 080°00'1 1.5
2018-Feb-18 12:58N 09°31' W 079°60'1 1.5
2018-Feb-18 12:30N 09°31' W 079°59'1 1.5
2018-Feb-18 12:00N 09°31' W 079°58'1 1.4
2018-Feb-18 11:30N 09°31' W 079°58'1 1.6
2018-Feb-18 11:01N 09°31' W 079°57'1 1.3
2018-Feb-18 10:26N 09°32' W 079°56'1 1.3
2018-Feb-18 10:00N 09°32' W 079°55'1 1.2
2018-Feb-18 09:30N 09°32' W 079°55'0 0.8
2018-Feb-18 09:00N 09°33' W 079°55'2 3.6
2018-Feb-18 08:30N 09°31' W 079°54'30711.4
2018-Feb-17 05:37N 11°42' W 075°11'215.7
2018-Feb-17 05:30N 11°42' W 075°09'1115.6
2018-Feb-17 04:48N 11°45' W 074°59'615.6
2018-Feb-17 04:25N 11°47' W 074°53'615.7
2018-Feb-17 04:00N 11°49' W 074°47'815.6
2018-Feb-17 03:29N 11°51' W 074°39'4615.7
2018-Feb-17 00:35N 12°04' W 073°54'1315.5
2018-Feb-16 23:44N 12°08' W 073°41'715.7
2018-Feb-16 23:19N 12°10' W 073°35'815.6
2018-Feb-16 22:49N 12°12' W 073°27'515.4
2018-Feb-16 22:29N 12°13' W 073°22'815.4
2018-Feb-16 21:59N 12°16' W 073°15'815.5
2018-Feb-16 21:29N 12°18' W 073°07'1115.6
2018-Feb-16 20:48N 12°21' W 072°57'515.6
2018-Feb-16 20:31N 12°22' W 072°52'  
Track history (hours):
 
Tides and Currents Weather Stations Pressure Air Temp Water Temp Dewpoint Dewpoint Depression Visibility Wind Speed Wind Dir Waves Ship Positions

MSC Maureen

Last reported at 2018-Feb-19 16:43 UTC. Time now 2018-Feb-20 13:40 UTC.
Position N 09°35' W 079°48'.

Length 301 m; draft 11.6 m.

Type: Ship. MMSI: 355216000.

Date/timePositionNaut miles runAvg speedWind from/ knotsBaromVisibWave heightAir tempDewpointWater temp
2018-Feb-19 16:43N 09°35' W 079°48'419.3
2018-Feb-19 16:30N 09°32' W 079°50'816.9
2018-Feb-19 16:00N 09°25' W 079°55'4 8.3
2018-Feb-19 15:30N 09°21' W 079°55'1 0.4
2018-Feb-19 13:54N 09°21' W 079°54'0 0.3
2018-Feb-19 13:30N 09°21' W 079°54'0 0.2
2018-Feb-19 13:00N 09°21' W 079°54'0 0.0
2018-Feb-19 12:30N 09°21' W 079°54'0 0.2
2018-Feb-19 12:00N 09°21' W 079°54'0 0.0
2018-Feb-19 11:29N 09°21' W 079°54'0 0.2
2018-Feb-19 10:59N 09°21' W 079°54'0 0.0
2018-Feb-19 10:29N 09°21' W 079°54'0 0.0
2018-Feb-19 09:59N 09°21' W 079°54'0 0.0
2018-Feb-19 09:28N 09°21' W 079°54'0 0.0
2018-Feb-19 08:58N 09°21' W 079°54'0 0.0
2018-Feb-19 08:25N 09°21' W 079°54'0 0.0
2018-Feb-19 07:58N 09°21' W 079°54'0 0.0
2018-Feb-19 07:28N 09°21' W 079°54'0 0.0
2018-Feb-19 07:00N 09°21' W 079°54'0 0.0
2018-Feb-19 06:30N 09°21' W 079°54'0 0.2
2018-Feb-19 05:57N 09°21' W 079°54'0 0.2
2018-Feb-19 05:30N 09°21' W 079°54'0 0.0
2018-Feb-19 05:00N 09°21' W 079°54'0 0.0
2018-Feb-19 04:29N 09°21' W 079°54'0 0.0
2018-Feb-19 03:59N 09°21' W 079°54'0 0.0
2018-Feb-19 03:29N 09°21' W 079°54'0 0.2
2018-Feb-19 02:59N 09°21' W 079°54'0 0.2
2018-Feb-19 02:28N 09°21' W 079°54'0 0.0
2018-Feb-19 01:58N 09°21' W 079°54'0 0.0
2018-Feb-19 01:28N 09°21' W 079°54'0 0.0
2018-Feb-19 00:58N 09°21' W 079°54'0 0.0
2018-Feb-19 00:28N 09°21' W 079°54'0 0.0
2018-Feb-19 00:00N 09°21' W 079°54'0 0.0
2018-Feb-18 23:30N 09°21' W 079°54'0 0.0
2018-Feb-18 23:00N 09°21' W 079°54'0 0.0
2018-Feb-18 22:30N 09°21' W 079°54'0 0.0
2018-Feb-18 22:00N 09°21' W 079°54'0 0.0
2018-Feb-18 21:29N 09°21' W 079°54'0 0.0
2018-Feb-18 20:56N 09°21' W 079°54'0 0.2
2018-Feb-18 20:29N 09°21' W 079°54'0 0.2
2018-Feb-18 19:59N 09°21' W 079°54'0 0.0
2018-Feb-18 19:28N 09°21' W 079°54'0 0.0
2018-Feb-18 18:58N 09°21' W 079°54'0 0.0
2018-Feb-18 18:28N 09°21' W 079°54'0 0.2
2018-Feb-18 17:58N 09°21' W 079°54'0 0.2
2018-Feb-18 17:28N 09°21' W 079°54'0 0.3
2018-Feb-18 17:00N 09°21' W 079°54'1 1.3
2018-Feb-18 16:30N 09°21' W 079°55'1 2.9
2018-Feb-18 16:00N 09°23' W 079°55'4 7.2
2018-Feb-18 15:30N 09°26' W 079°55'2 5.0
2018-Feb-18 15:00N 09°29' W 079°55'510.7
2018-Feb-18 14:30N 09°30' W 080°00'1 1.5
2018-Feb-18 14:00N 09°30' W 080°01'1 1.5
2018-Feb-18 13:30N 09°30' W 080°00'1 1.5
2018-Feb-18 12:58N 09°31' W 079°60'1 1.5
2018-Feb-18 12:30N 09°31' W 079°59'1 1.5
2018-Feb-18 12:00N 09°31' W 079°58'1 1.4
2018-Feb-18 11:30N 09°31' W 079°58'1 1.6
2018-Feb-18 11:01N 09°31' W 079°57'1 1.3
2018-Feb-18 10:26N 09°32' W 079°56'1 1.3
2018-Feb-18 10:00N 09°32' W 079°55'1 1.2
2018-Feb-18 09:30N 09°32' W 079°55'0 0.8
2018-Feb-18 09:00N 09°33' W 079°55'2 3.6
2018-Feb-18 08:30N 09°31' W 079°54'30711.4
2018-Feb-17 05:37N 11°42' W 075°11'215.7
2018-Feb-17 05:30N 11°42' W 075°09'1115.6
2018-Feb-17 04:48N 11°45' W 074°59'615.6
2018-Feb-17 04:25N 11°47' W 074°53'615.7
2018-Feb-17 04:00N 11°49' W 074°47'815.6
2018-Feb-17 03:29N 11°51' W 074°39'4615.7
2018-Feb-17 00:35N 12°04' W 073°54'1315.5
2018-Feb-16 23:44N 12°08' W 073°41'715.7
2018-Feb-16 23:19N 12°10' W 073°35'815.6
2018-Feb-16 22:49N 12°12' W 073°27'515.4
2018-Feb-16 22:29N 12°13' W 073°22'815.4
2018-Feb-16 21:59N 12°16' W 073°15'815.5
2018-Feb-16 21:29N 12°18' W 073°07'1115.6
2018-Feb-16 20:48N 12°21' W 072°57'515.6
2018-Feb-16 20:31N 12°22' W 072°52'  

Dump ship's entire track history